Time;durP1;ratioP1;P1;durP2;ratioP2;P2;SDS_P1;SDS_P2;PMS_P1;PMS_P2;Temp;Humidity;BMP_temperature;BMP_pressure;BME280_temperature;BME280_humidity;BME280_pressure;Samples;Min_cycle;Max_cycle;Signal;HPM_P1;HPM_P2
2021/12/05 00:17:41;;;;;;;;;;;;;;;10.26;57.09;98879.94;4992503;27;97762;-69
2021/12/05 00:23:25;;;;;;;;;;;;;;;10.26;57.02;98883.41;4986521;27;97891;-60
2021/12/05 00:25:55;;;;;;;;;;;;;;;10.27;57.47;98881.53;4983400;27;98006;-68
2021/12/05 00:31:11;;;;;;;;;;;;;;;10.29;56.90;98884.69;4998130;27;99548;-69
2021/12/05 00:39:24;;;;;;;;;;;;;;;10.30;57.22;98892.50;4991254;27;122404;-60
2021/12/05 00:42:11;;;;;;;;;;;;;;;10.31;56.95;98895.97;5000012;27;98571;-60
2021/12/05 00:47:36;;;;;;;;;;;;;;;10.31;57.42;98895.97;4969206;27;98266;-60
2021/12/05 01:01:48;;;;;;;;;;;;;;;10.32;56.89;98914.50;4999370;27;98251;-68
2021/12/05 01:09:10;;;;;;;;;;;;;;;10.35;57.11;98926.59;4979477;27;97935;-69
2021/12/05 01:14:28;;;;;;;;;;;;;;;10.35;57.09;98921.19;5004000;27;98159;-68
2021/12/05 01:16:54;;;;;;;;;;;;;;;10.37;57.24;98924.38;4977168;28;97875;-69
2021/12/05 01:19:22;;;;;;;;;;;;;;;10.37;57.22;98918.97;4996727;27;100820;-59
2021/12/05 01:21:49;;;;;;;;;;;;;;;10.38;57.29;98915.22;5003848;27;98457;-69
2021/12/05 01:24:28;;;;;;;;;;;;;;;10.39;57.19;98927.56;5003447;27;108091;-60
2021/12/05 01:30:06;;;;;;;;;;;;;;;10.40;57.59;98934.53;4959347;28;99159;-59
2021/12/05 01:32:48;;;;;;;;;;;;;;;10.41;57.15;98940.72;4990618;27;99407;-69
2021/12/05 01:38:04;;;;;;;;;;;;;;;10.43;57.21;98949.31;4996033;27;97931;-60
2021/12/05 01:43:38;;;;;;;;;;;;;;;10.44;57.19;98962.47;5001894;27;97994;-66
2021/12/05 01:51:40;;;;;;;;;;;;;;;10.46;57.10;98959.50;4983630;27;98921;-58
2021/12/05 02:00:02;;;;;;;;;;;;;;;10.48;57.58;98955.38;4997384;27;99531;-59
2021/12/05 02:02:54;;;;;;;;;;;;;;;10.49;57.84;98959.69;5003604;27;98358;-57
2021/12/05 02:08:46;;;;;;;;;;;;;;;10.51;57.36;98970.16;4995064;27;98294;-66
2021/12/05 02:15:19;;;;;;;;;;;;;;;10.53;57.47;98987.63;5000582;27;98507;-67
2021/12/05 02:16:38;;;;;;;;;;;;;;;10.54;57.18;98985.72;5002797;27;99195;-66
2021/12/05 02:29:36;;;;;;;;;;;;;;;10.55;57.14;98992.69;5001316;27;97784;-67
2021/12/05 02:42:48;;;;;;;;;;;;;;;10.60;57.25;99027.59;5001312;27;97970;-58
2021/12/05 02:45:14;;;;;;;;;;;;;;;10.61;57.21;99034.63;5002831;27;98828;-58
2021/12/05 02:47:47;;;;;;;;;;;;;;;10.63;57.56;99037.00;4993871;27;127561;-67
2021/12/05 02:50:13;;;;;;;;;;;;;;;10.63;57.60;99042.38;5002845;27;98152;-66
2021/12/05 02:52:41;;;;;;;;;;;;;;;10.64;57.42;99044.75;5003544;27;97910;-58
2021/12/05 02:55:17;;;;;;;;;;;;;;;10.65;57.70;99048.25;5002246;27;98183;-66
2021/12/05 03:00:18;;;;;;;;;;;;;;;10.66;58.01;99053.34;4983721;27;117929;-66
2021/12/05 03:02:47;;;;;;;;;;;;;;;10.67;57.92;99059.53;5003348;27;97858;-58
2021/12/05 03:05:18;;;;;;;;;;;;;;;10.67;57.63;99052.25;4983224;27;98809;-58
2021/12/05 03:07:47;;;;;;;;;;;;;;;10.67;58.08;99051.47;4993720;27;98739;-59
2021/12/05 03:10:14;;;;;;;;;;;;;;;10.69;57.43;99054.63;5001754;27;98193;-59
2021/12/05 03:12:43;;;;;;;;;;;;;;;10.69;57.71;99055.47;4965406;27;97996;-58
2021/12/05 03:15:10;;;;;;;;;;;;;;;10.70;57.55;99057.03;5003123;27;98469;-59
2021/12/05 03:17:36;;;;;;;;;;;;;;;10.71;57.44;99057.84;4992636;27;120054;-67
2021/12/05 03:20:03;;;;;;;;;;;;;;;10.70;57.76;99059.75;5001661;27;125816;-58
2021/12/05 03:22:29;;;;;;;;;;;;;;;10.71;57.55;99061.31;5000355;27;99552;-59
2021/12/05 03:24:54;;;;;;;;;;;;;;;10.72;57.80;99065.59;5001214;27;127661;-59
2021/12/05 03:27:20;;;;;;;;;;;;;;;10.73;57.92;99066.44;4993032;27;126132;-59
2021/12/05 03:29:46;;;;;;;;;;;;;;;10.73;57.70;99058.34;5000695;27;127433;-59
2021/12/05 03:32:12;;;;;;;;;;;;;;;10.73;57.69;99059.16;5002489;27;97827;-59
2021/12/05 03:34:38;;;;;;;;;;;;;;;10.75;57.84;99058.81;5000910;27;127320;-59
2021/12/05 03:37:04;;;;;;;;;;;;;;;10.73;57.56;99056.44;4995924;27;113844;-68
2021/12/05 03:39:30;;;;;;;;;;;;;;;10.75;57.77;99053.44;4982309;28;97914;-68
2021/12/05 03:41:56;;;;;;;;;;;;;;;10.75;57.86;99056.13;4994089;27;117438;-59
2021/12/05 03:44:24;;;;;;;;;;;;;;;10.76;58.15;99057.72;5002246;27;121564;-59
2021/12/05 03:46:50;;;;;;;;;;;;;;;10.75;57.91;99056.94;4998464;27;98251;-58
2021/12/05 03:49:16;;;;;;;;;;;;;;;10.76;58.20;99063.13;4997688;27;115286;-67
2021/12/05 03:51:48;;;;;;;;;;;;;;;10.76;58.09;99066.59;4983538;27;115508;-68
2021/12/05 03:54:15;;;;;;;;;;;;;;;10.77;57.79;99070.13;5000090;27;112071;-59
2021/12/05 03:56:41;;;;;;;;;;;;;;;10.77;57.97;99078.22;4997714;27;126703;-59
2021/12/05 03:59:07;;;;;;;;;;;;;;;10.77;57.98;99079.00;4995020;27;126738;-59
2021/12/05 04:01:34;;;;;;;;;;;;;;;10.78;57.81;99079.78;5002216;27;97825;-68
2021/12/05 04:04:00;;;;;;;;;;;;;;;10.78;57.84;99082.50;5001759;27;97992;-59
2021/12/05 04:06:26;;;;;;;;;;;;;;;10.79;57.93;99092.16;4999982;27;127350;-59
2021/12/05 04:08:52;;;;;;;;;;;;;;;10.80;58.12;99091.06;4993338;27;121543;-59
2021/12/05 04:11:23;;;;;;;;;;;;;;;10.79;57.84;99092.97;5001614;27;102972;-68
2021/12/05 04:13:49;;;;;;;;;;;;;;;10.80;58.27;99097.25;5001187;27;98554;-59
2021/12/05 04:16:15;;;;;;;;;;;;;;;10.81;58.29;99101.56;5000359;27;125189;-59
2021/12/05 04:18:41;;;;;;;;;;;;;;;10.82;57.90;99105.03;4992634;27;98251;-66
2021/12/05 04:21:07;;;;;;;;;;;;;;;10.81;57.93;99096.16;4982153;27;97950;-67
2021/12/05 04:23:33;;;;;;;;;;;;;;;10.82;58.05;99095.06;5000157;27;124933;-59
2021/12/05 04:25:59;;;;;;;;;;;;;;;10.84;57.84;99094.75;5000544;27;122778;-59
2021/12/05 04:28:25;;;;;;;;;;;;;;;10.84;57.95;99094.75;4992865;27;98417;-67
2021/12/05 04:30:51;;;;;;;;;;;;;;;10.84;58.35;99094.75;5002531;27;98129;-58
2021/12/05 04:33:17;;;;;;;;;;;;;;;10.83;57.80;99101.25;5001040;27;98189;-59
2021/12/05 04:35:43;;;;;;;;;;;;;;;10.86;58.24;99111.44;5002127;27;126909;-68
2021/12/05 04:38:09;;;;;;;;;;;;;;;10.87;58.16;99112.22;4940822;28;100379;-59
2021/12/05 04:40:35;;;;;;;;;;;;;;;10.88;58.13;99119.22;4985177;28;97757;-68
2021/12/05 04:43:02;;;;;;;;;;;;;;;10.89;58.48;99118.13;4998046;27;105671;-59
2021/12/05 04:45:30;;;;;;;;;;;;;;;10.89;58.18;99123.53;5004979;27;98439;-67
2021/12/05 04:47:56;;;;;;;;;;;;;;;10.89;58.10;99124.31;4997389;27;98687;-68
2021/12/05 04:50:22;;;;;;;;;;;;;;;10.89;58.06;99118.94;5004999;27;98035;-68
2021/12/05 04:52:48;;;;;;;;;;;;;;;10.90;58.01;99119.72;5002605;27;125691;-59
2021/12/05 04:55:14;;;;;;;;;;;;;;;10.91;58.01;99119.41;5005205;27;111472;-68
2021/12/05 04:57:40;;;;;;;;;;;;;;;10.92;57.90;99131.78;4995493;27;128485;-58
2021/12/05 05:00:12;;;;;;;;;;;;;;;10.92;58.10;99130.97;5004632;27;101501;-66
2021/12/05 05:02:38;;;;;;;;;;;;;;;10.93;58.18;99132.59;5004584;27;98570;-68
2021/12/05 05:05:05;;;;;;;;;;;;;;;10.93;58.08;99133.41;5003012;27;112026;-59
2021/12/05 05:07:31;;;;;;;;;;;;;;;10.94;58.31;99131.50;4994330;27;120051;-58
2021/12/05 05:10:02;;;;;;;;;;;;;;;10.94;58.05;99129.59;5003846;27;118587;-59
2021/12/05 05:12:28;;;;;;;;;;;;;;;10.94;57.68;99132.28;5002815;27;123986;-67
2021/12/05 05:14:55;;;;;;;;;;;;;;;10.96;57.88;99129.28;5003088;27;128594;-59
2021/12/05 05:17:21;;;;;;;;;;;;;;;10.96;58.24;99137.38;4996291;27;98590;-59
2021/12/05 05:19:55;;;;;;;;;;;;;;;10.96;58.43;99140.84;5005097;27;98460;-58
2021/12/05 05:22:47;;;;;;;;;;;;;;;10.97;58.43;99142.47;5005130;27;98357;-68
2021/12/05 05:51:41;;;;;;;;;;;;;;;11.02;58.37;99168.53;5001747;27;97739;-58
2021/12/05 05:54:07;;;;;;;;;;;;;;;11.03;58.38;99178.22;5002083;27;123369;-59
2021/12/05 05:56:34;;;;;;;;;;;;;;;11.03;58.46;99175.50;5001501;27;98195;-68
2021/12/05 05:59:44;;;;;;;;;;;;;;;11.04;58.07;99175.22;4996704;27;97978;-67
2021/12/05 06:04:18;;;;;;;;;;;;;;;11.04;58.23;99187.88;5000642;27;118755;-58
2021/12/05 06:06:44;;;;;;;;;;;;;;;11.06;58.21;99183.00;4975749;28;126091;-59
2021/12/05 06:09:10;;;;;;;;;;;;;;;11.06;58.31;99181.09;4992853;27;97847;-58
2021/12/05 06:11:36;;;;;;;;;;;;;;;11.06;58.28;99181.09;4982789;27;116667;-58
2021/12/05 06:14:03;;;;;;;;;;;;;;;11.08;58.29;99180.78;5001112;27;98462;-59
2021/12/05 06:16:29;;;;;;;;;;;;;;;11.09;58.40;99187.00;4983021;27;99253;-59
2021/12/05 06:18:55;;;;;;;;;;;;;;;11.09;58.51;99195.91;4995177;27;98129;-59
2021/12/05 06:21:21;;;;;;;;;;;;;;;11.09;58.28;99206.69;5001204;27;115644;-59
2021/12/05 06:23:47;;;;;;;;;;;;;;;11.09;58.40;99205.88;5000187;27;128490;-59
2021/12/05 06:26:15;;;;;;;;;;;;;;;11.10;58.66;99207.47;5002014;27;108230;-59
2021/12/05 06:28:44;;;;;;;;;;;;;;;11.11;58.65;99217.16;4993845;27;97826;-58
2021/12/05 06:39:23;;;;;;;;;;;;;;;11.12;58.23;99234.94;4996301;27;97903;-59
2021/12/05 06:47:14;;;;;;;;;;;;;;;11.13;58.55;99252.72;4991903;27;98150;-58
2021/12/05 06:49:41;;;;;;;;;;;;;;;11.13;58.33;99255.44;5000797;27;98296;-59
2021/12/05 06:52:07;;;;;;;;;;;;;;;11.14;58.39;99257.03;5001093;27;98017;-59
2021/12/05 06:54:34;;;;;;;;;;;;;;;11.12;58.47;99260.03;5001103;27;98633;-59
2021/12/05 06:57:00;;;;;;;;;;;;;;;11.13;58.15;99263.53;4995669;27;98718;-59
2021/12/05 06:59:26;;;;;;;;;;;;;;;11.15;58.12;99272.09;4997454;27;127414;-59
2021/12/05 07:01:52;;;;;;;;;;;;;;;11.14;58.74;99276.69;5000051;27;117068;-58
2021/12/05 07:07:00;;;;;;;;;;;;;;;11.15;58.50;99280.19;4993215;27;98675;-59
2021/12/05 07:09:27;;;;;;;;;;;;;;;11.17;58.29;99294.19;4998767;27;98305;-58
2021/12/05 07:14:51;;;;;;;;;;;;;;;11.17;58.63;99300.38;5000928;27;98113;-58
2021/12/05 07:22:56;;;;;;;;;;;;;;;11.17;58.42;99311.16;5000179;27;99164;-67
2021/12/05 07:25:13;;;;;;;;;;;;;;;11.21;58.64;99308.66;5001858;27;98063;-59
2021/12/05 07:41:27;;;;;;;;;;;;;;;11.25;58.65;99332.06;4989494;27;97947;-68
2021/12/05 07:43:53;;;;;;;;;;;;;;;11.27;58.28;99334.44;4999057;27;98205;-67
2021/12/05 07:46:19;;;;;;;;;;;;;;;11.27;58.82;99339.84;4998245;27;128937;-67
2021/12/05 07:48:46;;;;;;;;;;;;;;;11.28;58.53;99346.84;4989055;27;103384;-68
2021/12/05 07:54:11;;;;;;;;;;;;;;;11.30;58.88;99347.34;4996887;27;97959;-67
2021/12/05 07:59:21;;;;;;;;;;;;;;;11.31;58.34;99347.03;4992135;27;124441;-67
2021/12/05 08:15:34;;;;;;;;;;;;;;;11.46;58.54;99369.44;4996260;27;97834;-66
2021/12/05 08:18:00;;;;;;;;;;;;;;;11.48;58.53;99370.75;4991831;27;98526;-67
2021/12/05 08:20:30;;;;;;;;;;;;;;;11.48;58.57;99367.25;4998156;27;117668;-69
2021/12/05 08:22:56;;;;;;;;;;;;;;;11.49;58.80;99379.63;4997335;27;98138;-67
2021/12/05 08:25:25;;;;;;;;;;;;;;;11.47;58.54;99374.50;4999783;27;97931;-62
2021/12/05 08:27:56;;;;;;;;;;;;;;;11.48;58.59;99386.13;4990671;27;99363;-58
2021/12/05 08:30:31;;;;;;;;;;;;;;;11.49;58.44;99387.72;4999065;27;98635;-58
2021/12/05 08:33:15;;;;;;;;;;;;;;;11.49;58.49;99391.22;4998658;27;97964;-59
2021/12/05 08:40:52;;;;;;;;;;;;;;;11.51;58.84;99385.50;4996575;27;98068;-59
2021/12/05 09:08:38;;;;;;;;;;;;;;;11.58;58.65;99394.00;4990629;27;98100;-59
2021/12/05 09:40:14;;;;;;;;;;;;;;;12.11;58.58;99452.94;4993310;27;97717;-69
2021/12/05 10:10:14;;;;;;;;;;;;;;;12.01;59.03;99477.44;4982440;27;98212;-67
2021/12/05 10:13:00;;;;;;;;;;;;;;;11.98;59.15;99468.03;4979334;27;100262;-68
2021/12/05 10:26:33;;;;;;;;;;;;;;;12.12;58.69;99475.34;5002073;27;97972;-69
2021/12/05 10:37:23;;;;;;;;;;;;;;;12.41;58.60;99470.41;4985476;27;98193;-70
2021/12/05 10:40:05;;;;;;;;;;;;;;;12.49;58.58;99472.38;4979635;28;97944;-69
2021/12/05 10:42:44;;;;;;;;;;;;;;;12.60;58.35;99466.78;4999350;27;97902;-69
2021/12/05 10:45:33;;;;;;;;;;;;;;;12.71;58.41;99466.25;5002039;27;97887;-69
2021/12/05 10:48:04;;;;;;;;;;;;;;;12.87;58.27;99461.28;5000967;27;98338;-69
2021/12/05 10:50:29;;;;;;;;;;;;;;;13.01;58.00;99463.94;5001443;27;97842;-68
2021/12/05 10:53:18;;;;;;;;;;;;;;;13.10;57.90;99464.78;5001789;27;97859;-69
2021/12/05 10:55:44;;;;;;;;;;;;;;;13.16;58.17;99460.84;4993483;27;113509;-69
2021/12/05 10:58:10;;;;;;;;;;;;;;;13.16;58.18;99460.03;4974275;27;98536;-69
2021/12/05 11:00:36;;;;;;;;;;;;;;;13.17;58.34;99458.97;5000678;27;128612;-70
2021/12/05 11:03:18;;;;;;;;;;;;;;;13.17;58.19;99459.75;5000600;27;98434;-69
2021/12/05 11:05:44;;;;;;;;;;;;;;;13.18;58.34;99463.25;5001121;27;98047;-69
2021/12/05 11:08:36;;;;;;;;;;;;;;;13.18;58.49;99474.88;4992495;27;98699;-69
2021/12/05 11:11:12;;;;;;;;;;;;;;;13.18;58.38;99463.25;5000454;27;108459;-69
2021/12/05 11:13:39;;;;;;;;;;;;;;;13.18;58.48;99474.06;4999804;27;98747;-68
2021/12/05 11:16:26;;;;;;;;;;;;;;;13.19;58.66;99478.38;5000610;27;98048;-69
2021/12/05 11:18:52;;;;;;;;;;;;;;;13.20;58.53;99466.44;4980741;27;98758;-69
2021/12/05 11:21:33;;;;;;;;;;;;;;;13.21;58.52;99471.56;5000661;27;125318;-69
2021/12/05 11:24:26;;;;;;;;;;;;;;;13.29;58.38;99470.03;4999751;27;98049;-68
2021/12/05 11:27:16;;;;;;;;;;;;;;;13.41;58.47;99464.06;4982753;27;97836;-70
2021/12/05 11:29:49;;;;;;;;;;;;;;;13.51;58.40;99458.38;4999642;27;118703;-69
2021/12/05 11:32:29;;;;;;;;;;;;;;;13.52;58.32;99462.69;4999896;27;97873;-59
2021/12/05 11:34:55;;;;;;;;;;;;;;;13.55;58.43;99472.88;4998949;27;98274;-69
2021/12/05 11:37:21;;;;;;;;;;;;;;;13.58;58.36;99472.25;4983730;27;118891;-69
2021/12/05 11:39:48;;;;;;;;;;;;;;;13.66;57.95;99466.09;5000391;27;128148;-69
2021/12/05 11:42:20;;;;;;;;;;;;;;;13.75;58.29;99468.84;4998569;27;98168;-59
2021/12/05 11:44:48;;;;;;;;;;;;;;;13.83;57.91;99467.28;4979752;27;98624;-60
2021/12/05 11:47:16;;;;;;;;;;;;;;;13.92;58.18;99468.13;4993196;27;98046;-69
2021/12/05 11:49:42;;;;;;;;;;;;;;;13.96;58.03;99469.88;4998690;27;98368;-69
2021/12/05 11:52:09;;;;;;;;;;;;;;;14.10;57.89;99482.50;5000307;27;98880;-69
2021/12/05 11:54:38;;;;;;;;;;;;;;;14.21;57.83;99481.91;4997978;27;98204;-60
2021/12/05 11:57:07;;;;;;;;;;;;;;;14.26;57.66;99478.25;4991965;27;97898;-60
2021/12/05 11:59:43;;;;;;;;;;;;;;;14.24;57.98;99477.78;4997305;27;99108;-59
2021/12/05 12:02:13;;;;;;;;;;;;;;;14.19;58.01;99467.88;4997745;27;123035;-59
2021/12/05 12:04:59;;;;;;;;;;;;;;;14.18;58.14;99484.44;4998987;27;97839;-60
2021/12/05 12:07:45;;;;;;;;;;;;;;;14.17;58.23;99485.56;4985071;27;97755;-60
2021/12/05 12:10:22;;;;;;;;;;;;;;;14.20;58.40;99484.94;4992913;27;119309;-60
2021/12/05 12:12:54;;;;;;;;;;;;;;;14.23;58.12;99489.75;4990652;27;123424;-69
2021/12/05 12:15:20;;;;;;;;;;;;;;;14.28;58.18;99481.47;4998880;27;97982;-68
2021/12/05 12:17:47;;;;;;;;;;;;;;;14.32;57.94;99479.72;4970662;27;104158;-59
2021/12/05 12:20:16;;;;;;;;;;;;;;;14.34;58.08;99484.81;4980224;27;98320;-69
2021/12/05 12:22:42;;;;;;;;;;;;;;;14.35;58.04;99486.41;4998836;27;98508;-70
2021/12/05 12:25:11;;;;;;;;;;;;;;;14.38;58.18;99486.59;4962482;27;127280;-59
2021/12/05 12:27:37;;;;;;;;;;;;;;;14.43;58.44;99493.78;4990168;27;117342;-69
2021/12/05 12:30:08;;;;;;;;;;;;;;;14.46;58.29;99491.22;4979139;27;128485;-59
2021/12/05 12:32:42;;;;;;;;;;;;;;;14.40;58.15;99492.47;4998796;27;98389;-69
2021/12/05 12:35:16;;;;;;;;;;;;;;;14.35;58.49;99495.34;4981000;27;98128;-68
2021/12/05 12:37:54;;;;;;;;;;;;;;;14.32;58.79;99503.31;4990021;27;98033;-69
2021/12/05 12:40:45;;;;;;;;;;;;;;;14.25;58.96;99509.97;4991776;27;98962;-59
2021/12/05 12:43:36;;;;;;;;;;;;;;;14.20;59.07;99510.13;4993165;27;98987;-69
2021/12/05 12:46:34;;;;;;;;;;;;;;;14.13;58.94;99503.56;4983635;27;98449;-60
2021/12/05 12:49:20;;;;;;;;;;;;;;;14.10;59.05;99507.69;4983088;27;97818;-59
2021/12/05 12:51:47;;;;;;;;;;;;;;;14.10;58.71;99513.13;4997603;27;98759;-68
2021/12/05 12:54:25;;;;;;;;;;;;;;;14.09;58.72;99516.94;4998515;27;98440;-68
2021/12/05 12:57:08;;;;;;;;;;;;;;;14.07;58.99;99511.06;4994450;27;104700;-60
2021/12/05 12:59:36;;;;;;;;;;;;;;;14.07;58.77;99519.19;4994362;27;97884;-69
2021/12/05 13:10:17;;;;;;;;;;;;;;;13.83;59.59;99532.28;4994230;27;98149;-59
2021/12/05 13:12:48;;;;;;;;;;;;;;;13.75;59.36;99521.13;5000452;27;115474;-69
2021/12/05 13:15:20;;;;;;;;;;;;;;;13.68;59.85;99517.25;5001863;27;98224;-60
2021/12/05 13:17:50;;;;;;;;;;;;;;;13.62;59.86;99516.56;4992568;27;98677;-59
2021/12/05 13:20:18;;;;;;;;;;;;;;;13.57;59.66;99518.63;5002253;27;98086;-59
2021/12/05 13:23:11;;;;;;;;;;;;;;;13.50;59.95;99525.25;5000650;27;102430;-59
2021/12/05 13:25:56;;;;;;;;;;;;;;;13.46;59.93;99534.31;4998175;27;98404;-69
2021/12/05 13:28:43;;;;;;;;;;;;;;;13.39;60.01;99542.84;4993013;27;98029;-60
2021/12/05 13:31:27;;;;;;;;;;;;;;;13.32;59.87;99550.59;4998547;27;97712;-69
2021/12/05 13:34:22;;;;;;;;;;;;;;;13.26;60.16;99554.53;5001893;27;98193;-69
2021/12/05 13:36:54;;;;;;;;;;;;;;;13.20;60.06;99563.84;4996703;27;97993;-69
2021/12/05 13:39:37;;;;;;;;;;;;;;;13.16;59.99;99577.19;4998234;27;97847;-59
2021/12/05 13:42:08;;;;;;;;;;;;;;;13.11;60.09;99581.91;5001530;27;98424;-68
2021/12/05 13:44:59;;;;;;;;;;;;;;;13.06;59.92;99577.44;4994202;27;98296;-59
2021/12/05 13:47:29;;;;;;;;;;;;;;;13.03;59.95;99576.13;4981756;27;99284;-68
2021/12/05 13:49:56;;;;;;;;;;;;;;;12.97;60.15;99577.34;5000170;27;98083;-59
2021/12/05 13:52:36;;;;;;;;;;;;;;;12.95;60.01;99582.25;5001308;27;97881;-59
2021/12/05 13:55:40;;;;;;;;;;;;;;;12.93;60.35;99587.19;5000589;27;97982;-59
2021/12/05 13:58:22;;;;;;;;;;;;;;;12.91;60.37;99589.38;4992623;27;98629;-68
2021/12/05 14:01:14;;;;;;;;;;;;;;;12.87;60.14;99580.28;5000650;27;98447;-59
2021/12/05 14:03:45;;;;;;;;;;;;;;;12.87;60.01;99585.69;4985786;27;98753;-69
2021/12/05 14:06:47;;;;;;;;;;;;;;;12.86;60.18;99592.19;5001113;27;98725;-59
2021/12/05 14:09:27;;;;;;;;;;;;;;;12.84;60.06;99596.31;4999763;27;99150;-59
2021/12/05 14:11:59;;;;;;;;;;;;;;;12.81;59.99;99608.53;5001340;27;98312;-68
2021/12/05 14:14:28;;;;;;;;;;;;;;;12.80;59.88;99609.63;5000466;27;99112;-59
2021/12/05 14:16:55;;;;;;;;;;;;;;;12.79;60.01;99613.44;4995195;27;98228;-59
2021/12/05 14:19:23;;;;;;;;;;;;;;;12.76;60.14;99616.75;4997495;27;98922;-59
2021/12/05 14:21:51;;;;;;;;;;;;;;;12.75;60.20;99623.25;5000370;27;97910;-69
2021/12/05 14:24:19;;;;;;;;;;;;;;;12.72;59.82;99623.84;4981945;27;114007;-69
2021/12/05 14:26:47;;;;;;;;;;;;;;;12.72;59.89;99629.28;4997430;27;98396;-68
2021/12/05 14:29:16;;;;;;;;;;;;;;;12.70;60.09;99626.09;4979305;28;98907;-68
2021/12/05 14:31:45;;;;;;;;;;;;;;;12.69;59.70;99625.28;4999017;27;108940;-68
2021/12/05 14:34:11;;;;;;;;;;;;;;;12.68;60.04;99633.69;4983031;27;98615;-68
2021/12/05 14:36:42;;;;;;;;;;;;;;;12.65;60.23;99640.47;4997463;27;98229;-59
2021/12/05 14:39:34;;;;;;;;;;;;;;;12.64;59.92;99636.19;4994747;27;98181;-68
2021/12/05 14:42:05;;;;;;;;;;;;;;;12.61;59.87;99652.19;4999053;27;98051;-59
2021/12/05 14:44:31;;;;;;;;;;;;;;;12.60;59.84;99656.81;5000162;27;109489;-59
2021/12/05 14:47:05;;;;;;;;;;;;;;;12.59;59.57;99660.63;4994572;27;125372;-60
2021/12/05 14:49:33;;;;;;;;;;;;;;;12.57;59.84;99662.00;4963155;27;99596;-69
2021/12/05 14:52:00;;;;;;;;;;;;;;;12.55;59.82;99656.91;4982439;27;98517;-68
2021/12/05 14:54:28;;;;;;;;;;;;;;;12.55;59.75;99658.81;4998749;27;98227;-60
2021/12/05 14:56:55;;;;;;;;;;;;;;;12.53;59.86;99665.31;4994614;27;98258;-68
2021/12/05 14:59:21;;;;;;;;;;;;;;;12.52;59.89;99671.03;4996126;27;99050;-66
2021/12/05 15:01:51;;;;;;;;;;;;;;;12.51;59.81;99672.13;4999937;27;98240;-68
2021/12/05 15:04:20;;;;;;;;;;;;;;;12.50;59.82;99673.25;4994922;27;98195;-69
2021/12/05 15:06:45;;;;;;;;;;;;;;;12.49;59.83;99680.53;4992111;27;106084;-69
2021/12/05 15:09:23;;;;;;;;;;;;;;;12.49;59.89;99677.03;4994762;27;128032;-68
2021/12/05 15:11:58;;;;;;;;;;;;;;;12.47;59.83;99688.13;4992627;27;124692;-69
2021/12/05 15:14:24;;;;;;;;;;;;;;;12.46;59.62;99674.94;5000320;27;98042;-68
2021/12/05 15:17:21;;;;;;;;;;;;;;;12.45;59.69;99682.22;4995678;27;98423;-70
2021/12/05 15:19:48;;;;;;;;;;;;;;;12.44;59.58;99679.81;4987753;27;98869;-70
2021/12/05 15:22:14;;;;;;;;;;;;;;;12.43;59.71;99681.72;5001527;27;98162;-71
2021/12/05 15:24:41;;;;;;;;;;;;;;;12.42;59.56;99680.13;5000413;27;98507;-61
2021/12/05 15:27:14;;;;;;;;;;;;;;;12.42;59.47;99682.84;4992702;27;98623;-61
2021/12/05 15:29:48;;;;;;;;;;;;;;;12.41;59.52;99680.41;4980746;27;98309;-70
2021/12/05 15:32:19;;;;;;;;;;;;;;;12.41;59.73;99681.22;5000298;27;98121;-68
2021/12/05 15:34:45;;;;;;;;;;;;;;;12.41;59.62;99685.81;4999747;27;97829;-59
2021/12/05 15:37:12;;;;;;;;;;;;;;;12.40;59.76;99684.22;4993300;27;99108;-69
2021/12/05 15:39:42;;;;;;;;;;;;;;;12.39;59.61;99688.84;4998411;27;97833;-69
2021/12/05 15:42:20;;;;;;;;;;;;;;;12.39;59.57;99696.13;4999988;27;97774;-69
2021/12/05 15:44:47;;;;;;;;;;;;;;;12.38;59.45;99689.09;4992403;27;98938;-68
2021/12/05 15:47:14;;;;;;;;;;;;;;;12.38;59.71;99694.50;4970587;28;98103;-69
2021/12/05 15:49:50;;;;;;;;;;;;;;;12.37;59.49;99695.63;4997985;27;107515;-69
2021/12/05 15:52:17;;;;;;;;;;;;;;;12.37;59.71;99696.41;4998196;27;123491;-65
2021/12/05 15:54:43;;;;;;;;;;;;;;;12.35;59.42;99698.63;4963996;27;98312;-59
2021/12/05 15:57:16;;;;;;;;;;;;;;;12.36;59.37;99696.72;4991709;27;98765;-68
2021/12/05 15:59:46;;;;;;;;;;;;;;;12.35;59.54;99712.16;4980384;27;98059;-59
2021/12/05 16:02:14;;;;;;;;;;;;;;;12.34;59.48;99704.31;4992401;27;98605;-59
2021/12/05 16:04:40;;;;;;;;;;;;;;;12.33;59.44;99705.41;4998224;27;113665;-70
2021/12/05 16:07:10;;;;;;;;;;;;;;;12.33;59.41;99706.22;4991741;27;129096;-60
2021/12/05 16:09:37;;;;;;;;;;;;;;;12.33;59.36;99711.63;4962906;27;98430;-69
2021/12/05 16:12:12;;;;;;;;;;;;;;;12.33;59.60;99710.81;4998335;27;112169;-59
2021/12/05 16:14:42;;;;;;;;;;;;;;;12.33;59.43;99714.31;4999818;27;97830;-59
2021/12/05 16:17:17;;;;;;;;;;;;;;;12.32;59.33;99715.44;4992906;27;98842;-69
2021/12/05 16:20:03;;;;;;;;;;;;;;;12.32;59.23;99712.72;4993266;27;98662;-68
2021/12/05 16:22:29;;;;;;;;;;;;;;;12.31;59.27;99719.25;4993279;27;98769;-68
2021/12/05 16:24:55;;;;;;;;;;;;;;;12.31;59.28;99718.44;4998133;27;118697;-60
2021/12/05 16:27:21;;;;;;;;;;;;;;;12.31;59.29;99721.16;4967741;27;127706;-60
2021/12/05 16:29:47;;;;;;;;;;;;;;;12.30;59.38;99723.06;4996737;27;128464;-60
2021/12/05 16:32:14;;;;;;;;;;;;;;;12.31;59.36;99721.94;5000734;27;127643;-68
2021/12/05 16:34:46;;;;;;;;;;;;;;;12.29;59.30;99718.72;5003020;27;98096;-69
2021/12/05 16:37:12;;;;;;;;;;;;;;;12.30;59.37;99723.06;4995270;27;98605;-59
2021/12/05 16:39:45;;;;;;;;;;;;;;;12.29;59.21;99726.81;5001991;27;98637;-69
2021/12/05 16:42:16;;;;;;;;;;;;;;;12.28;59.45;99723.31;5002368;27;98062;-60
2021/12/05 16:44:47;;;;;;;;;;;;;;;12.29;59.54;99732.22;5003213;27;97950;-60
2021/12/05 16:47:16;;;;;;;;;;;;;;;12.28;59.12;99728.72;4971468;28;125033;-60
2021/12/05 16:49:44;;;;;;;;;;;;;;;12.28;59.17;99725.22;5000168;27;98440;-60
2021/12/05 16:52:20;;;;;;;;;;;;;;;12.27;59.23;99735.25;5001631;27;121742;-68
2021/12/05 16:55:01;;;;;;;;;;;;;;;12.27;59.08;99742.56;5002315;27;97846;-69
2021/12/05 16:57:32;;;;;;;;;;;;;;;12.27;59.04;99746.06;4990875;27;99177;-69
2021/12/05 17:00:00;;;;;;;;;;;;;;;12.27;59.36;99750.66;5002192;27;98607;-59
2021/12/05 17:02:30;;;;;;;;;;;;;;;12.27;59.05;99762.25;5001668;27;107248;-59
2021/12/05 17:05:17;;;;;;;;;;;;;;;12.27;59.10;99774.97;4984161;27;97941;-69
2021/12/05 17:07:50;;;;;;;;;;;;;;;12.25;59.15;99769.84;4993038;27;98652;-59
2021/12/05 17:10:19;;;;;;;;;;;;;;;12.26;59.12;99774.19;5002743;27;98891;-60
2021/12/05 17:12:45;;;;;;;;;;;;;;;12.26;58.93;99787.69;5001438;27;97995;-59
2021/12/05 17:15:19;;;;;;;;;;;;;;;12.26;59.16;99784.16;5000679;27;117285;-60
2021/12/05 17:17:45;;;;;;;;;;;;;;;12.24;58.94;99792.56;4992850;27;98438;-59
2021/12/05 17:20:25;;;;;;;;;;;;;;;12.24;59.15;99786.38;5002878;27;99077;-60
2021/12/05 17:23:17;;;;;;;;;;;;;;;12.24;58.95;99803.38;5001455;27;97927;-69
2021/12/05 17:25:46;;;;;;;;;;;;;;;12.23;59.13;99798.28;4994602;27;98051;-59
2021/12/05 17:28:18;;;;;;;;;;;;;;;12.22;59.03;99802.06;4992201;27;127168;-68
2021/12/05 17:30:55;;;;;;;;;;;;;;;12.21;58.95;99800.47;4982974;27;111420;-59
2021/12/05 17:33:30;;;;;;;;;;;;;;;12.20;58.95;99798.88;5000059;27;125678;-60
2021/12/05 17:35:56;;;;;;;;;;;;;;;12.20;58.87;99798.88;5001738;27;98234;-59
2021/12/05 17:38:35;;;;;;;;;;;;;;;12.19;59.01;99799.97;4993226;27;98506;-69
2021/12/05 17:41:01;;;;;;;;;;;;;;;12.18;58.97;99809.97;5001485;27;98016;-59
2021/12/05 17:43:27;;;;;;;;;;;;;;;12.17;59.04;99815.66;4981801;27;98249;-69
2021/12/05 17:45:53;;;;;;;;;;;;;;;12.16;59.03;99816.75;4966116;27;98168;-59
2021/12/05 17:48:19;;;;;;;;;;;;;;;12.14;58.96;99816.22;4974870;27;98230;-69
2021/12/05 17:50:45;;;;;;;;;;;;;;;12.13;59.02;99828.94;5000561;27;127870;-70
2021/12/05 17:53:11;;;;;;;;;;;;;;;12.11;59.07;99828.44;5000251;27;103107;-69
2021/12/05 17:55:44;;;;;;;;;;;;;;;12.10;59.06;99831.44;5001798;27;117467;-59
2021/12/05 17:58:22;;;;;;;;;;;;;;;12.09;58.96;99835.22;4992594;27;98554;-69
2021/12/05 18:02:35;;;;;;;;;;;;;;;12.08;58.95;99845.22;5000220;27;98576;-68
2021/12/05 18:03:40;;;;;;;;;;;;;;;12.08;59.11;99842.53;4999717;27;98402;-59
2021/12/05 18:06:06;;;;;;;;;;;;;;;12.06;59.00;99847.41;5000430;27;119595;-69